Time;durP1;ratioP1;P1;durP2;ratioP2;P2;SDS_P1;SDS_P2;PMS_P1;PMS_P2;Temp;Humidity;BMP_temperature;BMP_pressure;BME280_temperature;BME280_humidity;BME280_pressure;Samples;Min_cycle;Max_cycle;Signal;HPM_P1;HPM_P2
2021/07/10 00:00:50;;;;;;;23.00;20.70;;;14.10;99.90;;;;;;5068144;28;20201;-73
2021/07/10 00:03:16;;;;;;;21.50;19.20;;;14.10;99.90;;;;;;5083715;22;20232;-72
2021/07/10 00:05:45;;;;;;;24.80;22.17;;;13.90;99.90;;;;;;5088326;28;20204;-72
2021/07/10 00:08:11;;;;;;;22.23;20.00;;;13.90;99.90;;;;;;5087753;28;20565;-72
2021/07/10 00:10:38;;;;;;;28.90;22.48;;;13.90;99.90;;;;;;5088026;28;20204;-72
2021/07/10 00:13:05;;;;;;;25.17;22.33;;;13.90;99.90;;;;;;5088118;28;20200;-72
2021/07/10 00:15:32;;;;;;;21.80;19.65;;;13.90;99.90;;;;;;5086509;28;20197;-72
2021/07/10 00:17:59;;;;;;;28.92;23.92;;;13.80;99.90;;;;;;5087781;28;20196;-72
2021/07/10 00:20:26;;;;;;;24.02;21.63;;;13.80;99.90;;;;;;5088143;28;20192;-72
2021/07/10 00:22:54;;;;;;;25.80;23.17;;;13.80;99.90;;;;;;5085858;28;20238;-72
2021/07/10 00:25:21;;;;;;;26.35;23.55;;;13.80;99.90;;;;;;5087527;28;20204;-71
2021/07/10 00:27:49;;;;;;;25.13;22.63;;;13.80;99.90;;;;;;5088050;28;20206;-72
2021/07/10 00:30:17;;;;;;;27.48;24.67;;;13.80;99.90;;;;;;5085353;28;20196;-72
2021/07/10 00:32:44;;;;;;;27.42;24.55;;;13.70;99.90;;;;;;5086596;28;20292;-72
2021/07/10 00:35:12;;;;;;;28.33;25.48;;;13.70;99.90;;;;;;5086462;28;20207;-72
2021/07/10 00:37:39;;;;;;;28.52;25.52;;;13.70;99.90;;;;;;5087231;28;20192;-72
2021/07/10 00:40:09;;;;;;;27.95;23.73;;;13.70;99.90;;;;;;5087094;28;20198;-72
2021/07/10 00:42:36;;;;;;;27.02;24.13;;;13.70;99.90;;;;;;5081440;28;20221;-72
2021/07/10 00:45:04;;;;;;;28.30;25.20;;;13.70;99.90;;;;;;5085439;28;20204;-72
2021/07/10 00:47:31;;;;;;;28.10;25.10;;;13.70;99.90;;;;;;5087133;28;20661;-72
2021/07/10 00:49:58;;;;;;;26.67;23.95;;;13.70;99.90;;;;;;5079048;28;20204;-72
2021/07/10 00:52:25;;;;;;;27.10;24.25;;;13.70;99.90;;;;;;5087459;28;20231;-72
2021/07/10 00:54:52;;;;;;;26.15;23.15;;;13.70;99.90;;;;;;5087414;28;20226;-72
2021/07/10 00:57:20;;;;;;;24.65;22.05;;;13.70;99.90;;;;;;5076139;28;20297;-72
2021/07/10 00:59:47;;;;;;;26.42;23.60;;;13.70;99.90;;;;;;5087761;28;20357;-72
2021/07/10 01:02:15;;;;;;;26.95;23.90;;;13.70;99.90;;;;;;5086882;28;20587;-72
2021/07/10 01:04:41;;;;;;;28.23;25.33;;;13.60;99.90;;;;;;5087422;28;20204;-72
2021/07/10 01:07:08;;;;;;;26.42;23.73;;;13.60;99.90;;;;;;5087014;28;20283;-72
2021/07/10 01:09:35;;;;;;;26.48;23.73;;;13.60;99.90;;;;;;5086885;28;20224;-72
2021/07/10 01:12:02;;;;;;;26.88;23.98;;;13.60;99.90;;;;;;5084969;28;20208;-72
2021/07/10 01:14:33;;;;;;;25.00;21.92;;;13.60;99.90;;;;;;5087116;28;20646;-72
2021/07/10 01:17:00;;;;;;;24.33;21.70;;;13.60;99.90;;;;;;5080825;28;20211;-72
2021/07/10 01:19:27;;;;;;;25.75;23.15;;;13.60;99.90;;;;;;5085213;28;20204;-72
2021/07/10 01:21:55;;;;;;;27.45;23.58;;;13.50;99.90;;;;;;5086673;28;20259;-72
2021/07/10 01:24:22;;;;;;;27.05;23.15;;;13.50;99.90;;;;;;5082665;28;20237;-72
2021/07/10 01:26:50;;;;;;;30.15;24.90;;;13.50;99.90;;;;;;5086967;28;20200;-72
2021/07/10 01:29:17;;;;;;;27.75;24.33;;;13.50;99.90;;;;;;5079829;28;20248;-72
2021/07/10 01:31:45;;;;;;;26.50;23.70;;;13.50;99.90;;;;;;5086246;28;20200;-72
2021/07/10 01:34:12;;;;;;;25.98;23.20;;;13.40;99.90;;;;;;5084640;28;20287;-72
2021/07/10 01:36:41;;;;;;;26.10;23.20;;;13.40;99.90;;;;;;5076517;28;20300;-72
2021/07/10 01:39:09;;;;;;;23.38;20.88;;;13.40;99.90;;;;;;5079915;28;20224;-72
2021/07/10 01:41:44;;;;;;;29.52;22.80;;;13.30;99.90;;;;;;5083004;28;20211;-72
2021/07/10 01:44:11;;;;;;;21.63;19.38;;;13.30;99.90;;;;;;5084387;28;20320;-72
2021/07/10 01:46:38;;;;;;;22.50;20.20;;;13.20;99.90;;;;;;5079706;28;20200;-72
2021/07/10 01:49:05;;;;;;;23.30;20.70;;;13.30;99.90;;;;;;5086883;28;20574;-72
2021/07/10 01:51:32;;;;;;;22.90;20.50;;;13.40;99.90;;;;;;5081777;28;20200;-72
2021/07/10 01:53:59;;;;;;;25.33;22.73;;;13.30;99.90;;;;;;5086523;28;20208;-72
2021/07/10 01:56:27;;;;;;;27.83;24.85;;;13.10;99.90;;;;;;5086912;28;20662;-73
2021/07/10 01:58:55;;;;;;;26.30;23.58;;;13.10;99.90;;;;;;5087631;28;20204;-73
2021/07/10 02:01:22;;;;;;;30.20;22.15;;;13.20;99.90;;;;;;5087935;28;20231;-72
2021/07/10 02:03:49;;;;;;;24.42;21.92;;;13.20;99.90;;;;;;5090595;28;20231;-72
2021/07/10 02:06:16;;;;;;;27.85;21.83;;;13.20;99.90;;;;;;5090364;28;20227;-72
2021/07/10 02:08:44;;;;;;;42.83;22.95;;;13.10;99.90;;;;;;5090575;28;20303;-73
2021/07/10 02:11:11;;;;;;;47.65;21.20;;;13.20;99.90;;;;;;5090245;28;20679;-72
2021/07/10 02:13:39;;;;;;;37.10;21.65;;;13.10;99.90;;;;;;5090404;28;20275;-72
2021/07/10 02:16:06;;;;;;;31.15;22.50;;;13.10;99.90;;;;;;5090254;28;20200;-72
2021/07/10 02:18:33;;;;;;;25.48;22.73;;;13.10;99.90;;;;;;5089827;28;20207;-72
2021/07/10 02:21:00;;;;;;;25.23;22.33;;;13.10;99.90;;;;;;5090344;28;20291;-72
2021/07/10 02:23:27;;;;;;;27.42;22.38;;;13.10;99.90;;;;;;5089945;28;20224;-72
2021/07/10 02:25:54;;;;;;;45.10;23.05;;;13.00;99.90;;;;;;5089543;28;20665;-72
2021/07/10 02:28:21;;;;;;;27.35;21.20;;;13.00;99.90;;;;;;5089744;28;20223;-72
2021/07/10 02:30:50;;;;;;;43.97;23.05;;;13.00;99.90;;;;;;5088813;28;20551;-72
2021/07/10 02:33:17;;;;;;;27.80;22.67;;;13.00;99.90;;;;;;5089703;28;20576;-73
2021/07/10 02:35:45;;;;;;;29.48;22.35;;;12.90;99.90;;;;;;5090124;28;20203;-72
2021/07/10 02:38:13;;;;;;;23.48;20.90;;;12.90;99.90;;;;;;5089720;28;20204;-73
2021/07/10 02:40:40;;;;;;;24.85;21.67;;;12.80;99.90;;;;;;5088971;28;20208;-72
2021/07/10 02:43:07;;;;;;;30.90;24.10;;;12.80;99.90;;;;;;5089422;28;20224;-72
2021/07/10 02:45:35;;;;;;;30.15;25.15;;;12.90;99.90;;;;;;5089414;28;20208;-72
2021/07/10 02:48:03;;;;;;;32.45;25.05;;;12.90;99.90;;;;;;5089306;28;20243;-72
2021/07/10 02:50:30;;;;;;;28.45;24.45;;;12.80;99.90;;;;;;5089149;28;20681;-73
2021/07/10 02:52:57;;;;;;;28.05;23.80;;;12.80;99.90;;;;;;5089356;28;20207;-72
2021/07/10 02:55:25;;;;;;;27.15;22.67;;;12.80;99.90;;;;;;5090588;28;20287;-73
2021/07/10 02:57:52;;;;;;;26.85;23.95;;;12.80;99.90;;;;;;5089323;28;20208;-72
2021/07/10 03:00:21;;;;;;;25.45;22.58;;;12.80;99.90;;;;;;5089096;28;20207;-73
2021/07/10 03:02:48;;;;;;;27.52;24.58;;;12.80;99.90;;;;;;5089261;28;20208;-72
2021/07/10 03:05:16;;;;;;;26.75;23.25;;;12.70;99.90;;;;;;5088305;28;20729;-72
2021/07/10 03:07:44;;;;;;;29.60;25.35;;;12.80;99.90;;;;;;5088073;28;20287;-73
2021/07/10 03:10:14;;;;;;;29.20;23.73;;;12.80;99.90;;;;;;5089125;28;20203;-73
2021/07/10 03:12:42;;;;;;;29.88;25.48;;;12.80;99.90;;;;;;5089146;28;20327;-73
2021/07/10 03:15:10;;;;;;;29.33;24.13;;;12.80;99.90;;;;;;5088821;28;20240;-73
2021/07/10 03:17:37;;;;;;;28.98;24.75;;;12.80;99.90;;;;;;5087411;28;20197;-72
2021/07/10 03:20:05;;;;;;;29.95;25.85;;;12.80;99.90;;;;;;5089216;28;20215;-73
2021/07/10 03:22:33;;;;;;;33.38;26.30;;;12.80;99.90;;;;;;5088909;28;20553;-73
2021/07/10 03:25:00;;;;;;;33.10;26.52;;;12.80;99.90;;;;;;5088123;28;20224;-73
2021/07/10 03:27:27;;;;;;;34.72;26.98;;;12.80;99.90;;;;;;5086514;28;20673;-72
2021/07/10 03:29:54;;;;;;;33.33;26.63;;;12.80;99.90;;;;;;5088696;28;20196;-72
2021/07/10 03:32:20;;;;;;;33.45;27.55;;;12.70;99.90;;;;;;5088310;28;20203;-73
2021/07/10 03:34:47;;;;;;;32.30;26.05;;;12.70;99.90;;;;;;5088562;28;20200;-72
2021/07/10 03:37:14;;;;;;;31.02;25.60;;;12.70;99.90;;;;;;5088490;28;20196;-73
2021/07/10 03:39:42;;;;;;;31.65;25.08;;;12.70;99.90;;;;;;5088570;28;20210;-72
2021/07/10 03:42:09;;;;;;;31.27;25.42;;;12.70;99.90;;;;;;5088198;28;20216;-73
2021/07/10 03:44:36;;;;;;;31.33;25.60;;;12.60;99.90;;;;;;5088395;28;20596;-73
2021/07/10 03:47:03;;;;;;;30.92;25.23;;;12.60;99.90;;;;;;5088472;28;20215;-73
2021/07/10 03:49:30;;;;;;;34.38;26.17;;;12.70;99.90;;;;;;5088821;28;20438;-73
2021/07/10 03:51:57;;;;;;;33.55;25.30;;;12.70;99.90;;;;;;5088627;28;20211;-74
2021/07/10 03:54:24;;;;;;;27.80;24.48;;;12.80;99.90;;;;;;5088202;28;20588;-74
2021/07/10 03:56:52;;;;;;;30.55;26.25;;;12.90;99.90;;;;;;5087707;28;20291;-73
2021/07/10 03:59:19;;;;;;;26.35;23.45;;;12.90;99.90;;;;;;5085076;28;20203;-74
2021/07/10 04:01:46;;;;;;;29.60;24.02;;;12.90;99.90;;;;;;5088255;28;20668;-74
2021/07/10 04:04:13;;;;;;;28.25;24.25;;;12.90;99.90;;;;;;5087770;28;20232;-74
2021/07/10 04:06:41;;;;;;;30.42;24.55;;;13.00;99.90;;;;;;5084527;28;20232;-74
2021/07/10 04:09:08;;;;;;;27.38;23.23;;;12.90;99.90;;;;;;5086836;28;20661;-74
2021/07/10 04:11:35;;;;;;;28.63;22.80;;;13.00;99.90;;;;;;5088040;28;20192;-74
2021/07/10 04:14:04;;;;;;;26.35;23.00;;;13.20;99.90;;;;;;5087067;28;20681;-74
2021/07/10 04:16:31;;;;;;;25.42;22.73;;;13.70;99.90;;;;;;5085999;28;20200;-74
2021/07/10 04:19:00;;;;;;;26.30;23.70;;;14.80;99.90;;;;;;5086482;28;20209;-74
2021/07/10 04:21:27;;;;;;;20.83;18.80;;;15.60;99.90;;;;;;5088007;28;20205;-74
2021/07/10 04:23:53;;;;;;;18.20;16.40;;;15.60;99.90;;;;;;5087935;28;20319;-74
2021/07/10 04:26:20;;;;;;;16.23;14.90;;;15.60;99.90;;;;;;5087314;28;20212;-74
2021/07/10 04:28:47;;;;;;;15.25;13.80;;;16.00;99.90;;;;;;5082125;28;20192;-74
2021/07/10 04:31:16;;;;;;;13.67;12.47;;;16.90;99.90;;;;;;5087546;28;20307;-73
2021/07/10 04:33:43;;;;;;;13.00;11.90;;;17.00;99.90;;;;;;5086824;28;20630;-72
2021/07/10 04:36:10;;;;;;;11.73;10.73;;;17.30;99.90;;;;;;5087359;28;20736;-72
2021/07/10 04:38:38;;;;;;;10.60;9.60;;;17.50;99.90;;;;;;5087305;28;20619;-72
2021/07/10 04:41:06;;;;;;;10.70;9.70;;;17.70;99.90;;;;;;5085737;28;20626;-74
2021/07/10 04:43:33;;;;;;;10.50;9.70;;;17.80;99.90;;;;;;5087555;28;20670;-74
2021/07/10 04:46:00;;;;;;;10.33;9.53;;;18.80;99.90;;;;;;5086237;28;21178;-74
2021/07/10 04:48:29;;;;;;;9.60;8.90;;;20.20;99.90;;;;;;5080702;28;20652;-74
2021/07/10 04:50:56;;;;;;;8.40;7.80;;;20.90;99.90;;;;;;5086748;28;20629;-74
2021/07/10 04:53:23;;;;;;;10.33;8.63;;;21.90;99.90;;;;;;5088469;28;20621;-74
2021/07/10 04:55:50;;;;;;;9.23;8.43;;;22.10;98.80;;;;;;5078360;28;20657;-72
2021/07/10 04:58:16;;;;;;;9.20;8.53;;;23.50;96.90;;;;;;5078497;28;21249;-72
2021/07/10 05:00:43;;;;;;;8.40;7.80;;;24.30;95.20;;;;;;5084138;28;20720;-72
2021/07/10 05:03:11;;;;;;;8.17;7.57;;;24.80;94.10;;;;;;5084643;28;20648;-72
2021/07/10 05:05:39;;;;;;;8.50;7.90;;;24.50;92.70;;;;;;5086631;28;21034;-72
2021/07/10 05:08:07;;;;;;;8.77;8.17;;;25.00;92.00;;;;;;5086801;28;20629;-72
2021/07/10 05:10:34;;;;;;;8.70;8.10;;;25.10;91.90;;;;;;5086686;28;20661;-74
2021/07/10 05:13:01;;;;;;;9.10;8.43;;;24.40;91.90;;;;;;5087342;28;20630;-74
2021/07/10 05:15:28;;;;;;;9.33;8.73;;;25.50;91.60;;;;;;5086471;28;20725;-74
2021/07/10 05:17:55;;;;;;;8.57;8.07;;;26.40;89.40;;;;;;5085555;28;20724;-74
2021/07/10 05:20:22;;;;;;;9.57;8.87;;;26.90;87.00;;;;;;5084045;28;20703;-74
2021/07/10 05:22:50;;;;;;;9.30;8.60;;;27.80;83.90;;;;;;5084850;28;20656;-73
2021/07/10 05:25:17;;;;;;;9.37;8.77;;;26.90;83.70;;;;;;5086112;28;20693;-72
2021/07/10 05:27:44;;;;;;;9.73;9.03;;;26.80;83.80;;;;;;5085022;28;20636;-72
2021/07/10 05:30:13;;;;;;;8.87;8.27;;;26.60;84.60;;;;;;5086721;28;20626;-72
2021/07/10 05:32:40;;;;;;;9.40;8.70;;;27.50;82.70;;;;;;5087245;28;21197;-72
2021/07/10 05:35:10;;;;;;;9.90;9.20;;;28.40;79.90;;;;;;5085670;28;20658;-72
2021/07/10 05:37:37;;;;;;;9.47;8.83;;;28.60;77.50;;;;;;5086474;28;20727;-73
2021/07/10 05:40:07;;;;;;;8.90;8.30;;;27.90;78.90;;;;;;5087761;28;20724;-72
2021/07/10 05:42:34;;;;;;;10.23;9.50;;;28.40;78.80;;;;;;5086601;28;20630;-73
2021/07/10 05:45:00;;;;;;;9.87;9.17;;;29.20;75.90;;;;;;5086482;28;21393;-72
2021/07/10 05:47:27;;;;;;;8.90;8.30;;;27.10;79.30;;;;;;5087578;28;20630;-72
2021/07/10 05:49:54;;;;;;;8.90;8.30;;;27.00;81.70;;;;;;5078867;28;20655;-72
2021/07/10 05:52:21;;;;;;;9.50;8.90;;;28.10;78.20;;;;;;5087523;28;20614;-73
2021/07/10 05:54:48;;;;;;;9.20;8.60;;;28.00;78.80;;;;;;5086556;28;20839;-72
2021/07/10 05:57:16;;;;;;;9.23;8.33;;;26.90;79.30;;;;;;5083517;28;20733;-72
2021/07/10 05:59:43;;;;;;;8.70;8.10;;;27.10;81.10;;;;;;5082009;28;20641;-72
2021/07/10 06:02:10;;;;;;;8.97;8.30;;;28.90;76.10;;;;;;5085682;28;20622;-72
2021/07/10 06:04:37;;;;;;;8.93;8.40;;;28.70;74.70;;;;;;5085396;28;20642;-72
2021/07/10 06:07:08;;;;;;;8.87;8.27;;;28.30;77.30;;;;;;5086572;28;20707;-72
2021/07/10 06:09:35;;;;;;;8.37;7.77;;;29.30;74.40;;;;;;5086008;28;20640;-72
2021/07/10 06:12:03;;;;;;;8.33;7.70;;;29.90;72.10;;;;;;5086312;28;20640;-72
2021/07/10 06:14:31;;;;;;;9.23;8.53;;;29.80;72.60;;;;;;5078215;28;20669;-72
2021/07/10 06:16:59;;;;;;;9.80;9.20;;;30.40;70.80;;;;;;5083047;28;20700;-72
2021/07/10 06:19:26;;;;;;;10.03;9.33;;;30.20;70.30;;;;;;5085100;28;20657;-72
2021/07/10 06:21:53;;;;;;;9.97;9.17;;;30.30;70.90;;;;;;5086601;28;20677;-72
2021/07/10 06:24:20;;;;;;;9.33;8.70;;;30.30;70.00;;;;;;5085837;28;21040;-72
2021/07/10 06:26:48;;;;;;;10.17;9.57;;;29.50;72.80;;;;;;5085878;28;20618;-72
2021/07/10 06:29:15;;;;;;;9.43;8.83;;;27.50;76.70;;;;;;5084388;28;20630;-72
2021/07/10 06:31:44;;;;;;;9.47;8.80;;;27.90;77.80;;;;;;5085510;28;21052;-72
2021/07/10 06:34:11;;;;;;;8.60;8.00;;;29.70;72.50;;;;;;5083948;28;20709;-72
2021/07/10 06:36:38;;;;;;;9.43;8.83;;;30.60;69.10;;;;;;5075858;28;20728;-72
2021/07/10 06:39:06;;;;;;;9.80;9.10;;;30.90;68.60;;;;;;5081603;28;21268;-72
2021/07/10 06:41:33;;;;;;;9.30;8.70;;;31.30;66.60;;;;;;5083537;28;20765;-72
2021/07/10 06:44:00;;;;;;;8.67;8.07;;;31.40;66.80;;;;;;5084314;28;20675;-72
2021/07/10 06:46:27;;;;;;;10.20;9.50;;;31.20;67.00;;;;;;5089785;28;20671;-72
2021/07/10 06:48:55;;;;;;;9.03;8.43;;;31.20;66.60;;;;;;5088880;28;20669;-72
2021/07/10 06:51:22;;;;;;;8.87;8.37;;;31.70;65.90;;;;;;5085110;28;20626;-72
2021/07/10 06:53:49;;;;;;;9.03;8.23;;;31.20;66.80;;;;;;5090199;28;20637;-72
2021/07/10 06:56:16;;;;;;;9.33;8.67;;;32.00;64.50;;;;;;5084243;28;20630;-72
2021/07/10 06:58:43;;;;;;;8.67;8.17;;;31.80;64.70;;;;;;5089402;28;20630;-72
2021/07/10 07:01:10;;;;;;;8.30;7.80;;;31.00;66.80;;;;;;5085064;28;20618;-72
2021/07/10 07:03:36;;;;;;;8.83;8.23;;;30.90;67.90;;;;;;5084731;28;20741;-74
2021/07/10 07:06:05;;;;;;;9.70;9.10;;;31.20;65.90;;;;;;5089267;28;20667;-74
2021/07/10 07:08:32;;;;;;;9.83;9.13;;;30.90;67.20;;;;;;5085272;28;20648;-72
2021/07/10 07:11:01;;;;;;;10.50;9.80;;;30.40;68.00;;;;;;5078187;28;20641;-65
2021/07/10 07:13:28;;;;;;;8.40;7.90;;;29.90;69.30;;;;;;5090940;22;20662;-68
2021/07/10 07:15:55;;;;;;;8.13;7.53;;;30.00;69.60;;;;;;5041836;28;20667;-68
2021/07/10 07:18:21;;;;;;;8.50;8.00;;;31.40;65.90;;;;;;5049843;22;20627;-67
2021/07/10 07:20:48;;;;;;;8.50;7.90;;;31.80;65.60;;;;;;5040596;28;20668;-68
2021/07/10 07:23:16;;;;;;;8.60;8.10;;;31.30;68.00;;;;;;5039961;28;20616;-67
2021/07/10 07:25:43;;;;;;;8.27;7.77;;;31.50;65.40;;;;;;5045706;28;21194;-67
2021/07/10 07:28:10;;;;;;;8.40;7.90;;;31.80;65.30;;;;;;5048309;28;20723;-67
2021/07/10 07:30:37;;;;;;;9.57;8.97;;;32.10;63.50;;;;;;5046287;28;20634;-67
2021/07/10 07:33:05;;;;;;;8.60;8.10;;;31.20;65.90;;;;;;5046222;28;20723;-67
2021/07/10 07:35:32;;;;;;;8.90;8.30;;;30.40;68.80;;;;;;5048208;28;20678;-67
2021/07/10 07:37:59;;;;;;;8.30;7.80;;;30.20;69.50;;;;;;5045299;28;20732;-67
2021/07/10 07:40:27;;;;;;;7.63;7.10;;;30.80;69.30;;;;;;5047488;28;21068;-66
2021/07/10 07:42:55;;;;;;;8.30;7.80;;;30.80;69.10;;;;;;5045917;28;20625;-64
2021/07/10 07:45:25;;;;;;;8.10;7.60;;;30.50;67.50;;;;;;5047575;28;20624;-65
2021/07/10 07:47:53;;;;;;;9.10;8.50;;;31.00;66.90;;;;;;5047303;28;20678;-64
2021/07/10 07:50:21;;;;;;;8.40;7.90;;;30.90;68.40;;;;;;5046259;28;20630;-65
2021/07/10 07:52:48;;;;;;;8.00;7.50;;;30.40;68.10;;;;;;5047668;28;20655;-68
2021/07/10 07:55:15;;;;;;;8.73;8.23;;;31.30;65.40;;;;;;5043931;28;20723;-67
2021/07/10 07:57:43;;;;;;;7.37;6.70;;;31.60;64.40;;;;;;5048776;28;21203;-65
2021/07/10 08:00:13;;;;;;;8.50;8.00;;;31.90;65.00;;;;;;5049756;28;20620;-65
2021/07/10 08:02:41;;;;;;;8.70;8.20;;;31.50;67.00;;;;;;5048571;28;20636;-67
2021/07/10 08:05:09;;;;;;;8.00;7.50;;;30.90;65.60;;;;;;5048266;28;20620;-65
2021/07/10 08:07:36;;;;;;;8.63;8.07;;;31.10;66.90;;;;;;5049422;28;21039;-64
2021/07/10 08:10:08;;;;;;;8.90;8.30;;;31.20;65.40;;;;;;5047652;28;20652;-67
2021/07/10 08:12:35;;;;;;;8.30;7.80;;;30.40;66.80;;;;;;5048903;28;20676;-65
2021/07/10 08:15:06;;;;;;;8.27;7.77;;;29.90;67.00;;;;;;5049349;28;20671;-65
2021/07/10 08:17:33;;;;;;;8.10;7.60;;;30.10;67.50;;;;;;5049901;28;20667;-65
2021/07/10 08:20:00;;;;;;;8.67;8.10;;;29.40;68.90;;;;;;5049208;28;20727;-65
2021/07/10 08:22:28;;;;;;;9.00;8.40;;;29.90;67.50;;;;;;5050208;28;20628;-66
2021/07/10 08:25:07;;;;;;;8.30;7.80;;;29.20;71.50;;;;;;5054828;22;21040;-66
2021/07/10 08:27:42;;;;;;;8.50;7.90;;;29.00;69.70;;;;;;5048330;28;21013;-66
2021/07/10 08:30:13;;;;;;;8.53;7.93;;;30.00;68.80;;;;;;5058975;22;21245;-64
2021/07/10 08:32:40;;;;;;;7.73;7.13;;;30.20;69.20;;;;;;5048582;28;20628;-65
2021/07/10 08:35:08;;;;;;;8.33;7.73;;;29.90;67.50;;;;;;5048037;28;20779;-65
2021/07/10 08:37:35;;;;;;;8.43;7.93;;;30.20;67.90;;;;;;5048546;28;20615;-65
2021/07/10 08:40:02;;;;;;;9.10;8.50;;;30.00;69.10;;;;;;5048354;28;20628;-65
2021/07/10 08:42:29;;;;;;;8.53;7.87;;;29.40;69.80;;;;;;5048168;28;20652;-65
2021/07/10 08:44:56;;;;;;;8.90;8.30;;;28.70;73.50;;;;;;5047967;28;21015;-65
2021/07/10 08:47:25;;;;;;;8.23;7.73;;;28.30;72.60;;;;;;5048165;28;20731;-65
2021/07/10 08:49:52;;;;;;;8.07;7.47;;;28.00;73.10;;;;;;5047586;28;20632;-65
2021/07/10 08:52:19;;;;;;;8.93;8.27;;;28.50;73.40;;;;;;5047686;28;20664;-65
2021/07/10 08:54:46;;;;;;;8.77;8.17;;;29.00;71.00;;;;;;5047996;28;20695;-65
2021/07/10 08:57:14;;;;;;;7.07;6.47;;;29.80;67.80;;;;;;5047897;28;20723;-65
2021/07/10 08:59:43;;;;;;;8.60;8.10;;;29.40;70.90;;;;;;5047595;28;20687;-65
2021/07/10 09:02:10;;;;;;;7.67;6.90;;;29.30;68.70;;;;;;5047153;28;20624;-66
2021/07/10 09:04:39;;;;;;;7.73;7.23;;;29.10;66.30;;;;;;5047460;28;20620;-67
2021/07/10 09:07:06;;;;;;;8.00;7.50;;;29.50;69.00;;;;;;5047400;28;20624;-66
2021/07/10 09:09:44;;;;;;;7.47;7.00;;;28.70;71.60;;;;;;5046959;28;21657;-66
2021/07/10 09:12:12;;;;;;;6.43;6.13;;;29.30;69.70;;;;;;5047500;28;20628;-67
2021/07/10 09:14:41;;;;;;;5.80;5.50;;;29.00;67.80;;;;;;5047378;28;20628;-66
2021/07/10 09:17:19;;;;;;;6.40;6.00;;;29.40;66.10;;;;;;5047185;28;20671;-66
2021/07/10 09:19:49;;;;;;;7.13;6.63;;;29.10;68.40;;;;;;5047173;28;20632;-66
2021/07/10 09:22:26;;;;;;;5.90;5.50;;;29.10;66.60;;;;;;5046240;28;20655;-66
2021/07/10 09:24:53;;;;;;;5.33;4.93;;;29.00;67.30;;;;;;5046546;28;20718;-67
2021/07/10 09:27:20;;;;;;;4.17;3.97;;;28.80;66.40;;;;;;5047923;28;20656;-66
2021/07/10 09:29:49;;;;;;;5.17;4.87;;;28.20;63.20;;;;;;5048396;28;20734;-66
2021/07/10 09:32:19;;;;;;;5.30;4.97;;;28.00;64.00;;;;;;5048340;28;20950;-66
2021/07/10 09:34:50;;;;;;;5.73;5.43;;;28.30;63.70;;;;;;5048519;28;20724;-66
2021/07/10 09:37:19;;;;;;;4.40;4.10;;;28.10;64.70;;;;;;5047587;28;20640;-66
2021/07/10 09:39:54;;;;;;;4.30;4.10;;;28.30;63.60;;;;;;5048279;28;20709;-66
2021/07/10 09:42:25;;;;;;;3.77;3.57;;;28.40;64.00;;;;;;5048010;28;20630;-66
2021/07/10 09:44:55;;;;;;;4.70;4.40;;;28.80;62.20;;;;;;5047226;28;20624;-67
2021/07/10 09:47:26;;;;;;;4.37;4.17;;;28.80;61.00;;;;;;5047432;28;20720;-66
2021/07/10 09:49:55;;;;;;;4.70;4.40;;;29.30;59.50;;;;;;5047643;28;20651;-66
2021/07/10 09:52:23;;;;;;;4.93;4.63;;;29.00;61.90;;;;;;5047755;28;20636;-66
2021/07/10 09:54:52;;;;;;;4.20;3.90;;;29.00;63.90;;;;;;5047835;28;20703;-66
2021/07/10 09:57:20;;;;;;;4.20;3.90;;;29.50;62.50;;;;;;5047323;28;20636;-66
2021/07/10 09:59:52;;;;;;;4.27;3.97;;;29.30;66.20;;;;;;5048073;28;20720;-66
2021/07/10 10:02:31;;;;;;;3.90;3.70;;;30.10;59.10;;;;;;5048060;28;20802;-66
2021/07/10 10:05:04;;;;;;;4.90;4.60;;;29.50;62.90;;;;;;5048228;28;20681;-66
2021/07/10 10:07:43;;;;;;;4.40;4.20;;;29.30;60.60;;;;;;5047563;28;21078;-66
2021/07/10 10:10:16;;;;;;;4.33;4.03;;;27.80;62.80;;;;;;5047925;28;21167;-66
2021/07/10 10:12:43;;;;;;;4.63;4.23;;;28.50;61.30;;;;;;5048083;28;20655;-66
2021/07/10 10:15:10;;;;;;;4.70;4.40;;;28.90;59.60;;;;;;5047115;28;20689;-66
2021/07/10 10:17:38;;;;;;;3.90;3.60;;;28.90;61.50;;;;;;5049527;28;21050;-66
2021/07/10 10:20:08;;;;;;;4.43;4.13;;;28.40;61.50;;;;;;5051821;28;20633;-66
2021/07/10 10:22:35;;;;;;;4.33;4.03;;;27.90;62.20;;;;;;5051056;28;20636;-66
2021/07/10 10:25:03;;;;;;;3.93;3.73;;;27.90;66.50;;;;;;5051692;28;20630;-66
2021/07/10 10:27:31;;;;;;;4.80;4.50;;;27.60;69.50;;;;;;5050863;28;21089;-66
2021/07/10 10:29:58;;;;;;;4.43;4.23;;;27.50;69.30;;;;;;5051439;28;20659;-66
2021/07/10 10:32:25;;;;;;;4.90;4.50;;;27.80;68.40;;;;;;5051577;28;21203;-66
2021/07/10 10:34:55;;;;;;;4.40;4.20;;;27.90;67.80;;;;;;5051489;28;20631;-66
2021/07/10 10:37:24;;;;;;;4.37;4.17;;;28.60;65.70;;;;;;5051409;28;21273;-66
2021/07/10 10:39:51;;;;;;;4.60;4.40;;;28.90;65.20;;;;;;5051201;28;20757;-66
2021/07/10 10:42:21;;;;;;;5.13;4.83;;;28.30;67.50;;;;;;5051452;28;20624;-66
2021/07/10 10:44:50;;;;;;;4.90;4.60;;;28.50;64.90;;;;;;5050265;28;21033;-66
2021/07/10 10:47:22;;;;;;;4.53;4.30;;;28.10;69.30;;;;;;5050613;28;20636;-66
2021/07/10 10:49:50;;;;;;;4.80;4.50;;;28.50;67.40;;;;;;5051121;28;20713;-66
2021/07/10 10:52:42;;;;;;;5.90;5.47;;;28.40;66.40;;;;;;5050489;28;21225;-66
2021/07/10 10:55:13;;;;;;;5.30;5.00;;;28.30;66.10;;;;;;5051449;28;20630;-66
2021/07/10 10:57:43;;;;;;;5.87;5.47;;;27.60;66.80;;;;;;5070662;28;20689;-66
2021/07/10 11:00:14;;;;;;;5.47;5.17;;;27.40;69.00;;;;;;5070014;28;20622;-66
2021/07/10 11:03:05;;;;;;;5.37;5.07;;;27.50;75.00;;;;;;5037916;28;21181;-66
2021/07/10 11:05:50;;;;;;;5.30;5.00;;;27.70;72.10;;;;;;5045422;28;20636;-66
2021/07/10 11:08:49;;;;;;;5.27;4.97;;;28.10;69.70;;;;;;5050967;28;20678;-66
2021/07/10 11:11:37;;;;;;;5.83;5.50;;;28.10;68.10;;;;;;5050780;28;21181;-66
2021/07/10 11:14:28;;;;;;;5.83;5.53;;;27.50;70.60;;;;;;5050592;28;21026;-66
2021/07/10 11:17:12;;;;;;;4.93;4.63;;;26.80;69.80;;;;;;5050733;28;20695;-66
2021/07/10 11:20:00;;;;;;;6.03;5.63;;;26.40;73.30;;;;;;5030448;28;20601;-66
2021/07/10 11:23:03;;;;;;;6.57;6.00;;;25.90;75.10;;;;;;5029616;28;20597;-67
2021/07/10 11:26:09;;;;;;;5.40;5.10;;;25.90;76.70;;;;;;5044488;28;21204;-67
2021/07/10 11:28:55;;;;;;;5.20;4.90;;;25.50;74.50;;;;;;5048491;28;21123;-67
2021/07/10 11:31:35;;;;;;;6.37;5.77;;;25.40;77.10;;;;;;5049762;28;20944;-67
2021/07/10 11:34:06;;;;;;;6.43;5.00;;;25.10;80.10;;;;;;5045191;28;21310;-67
2021/07/10 11:36:56;;;;;;;5.70;5.30;;;25.00;79.70;;;;;;5048975;28;20815;-67
2021/07/10 11:39:52;;;;;;;5.63;5.00;;;25.20;77.80;;;;;;5049137;28;20686;-68
2021/07/10 11:42:48;;;;;;;5.00;4.70;;;25.70;78.00;;;;;;5045859;28;20651;-67
2021/07/10 11:45:27;;;;;;;5.53;5.23;;;26.20;75.60;;;;;;5047933;28;21177;-67
2021/07/10 11:48:22;;;;;;;5.37;5.00;;;26.50;73.70;;;;;;5050727;28;20584;-67
2021/07/10 11:51:09;;;;;;;5.13;4.83;;;26.70;73.60;;;;;;5074178;22;20801;-68
2021/07/10 11:53:36;;;;;;;5.40;5.10;;;26.50;72.00;;;;;;5069241;28;20697;-68
2021/07/10 11:56:04;;;;;;;4.70;4.40;;;26.20;74.00;;;;;;5038806;22;20697;-67
2021/07/10 11:58:34;;;;;;;5.30;4.90;;;26.30;73.70;;;;;;5029335;28;20591;-67
2021/07/10 12:01:02;;;;;;;4.40;4.10;;;26.40;71.90;;;;;;5028842;28;21259;-67
2021/07/10 12:03:29;;;;;;;5.00;4.70;;;26.00;71.50;;;;;;5028234;28;20748;-67
2021/07/10 12:05:58;;;;;;;5.00;4.70;;;25.50;76.00;;;;;;5027921;28;20994;-66
2021/07/10 12:08:26;;;;;;;4.53;4.23;;;25.20;77.50;;;;;;5028313;28;20648;-66
2021/07/10 12:10:55;;;;;;;5.50;5.00;;;25.40;76.70;;;;;;5021694;28;20652;-67
2021/07/10 12:13:24;;;;;;;5.20;4.90;;;25.60;75.60;;;;;;5041882;28;20633;-67
2021/07/10 12:15:55;;;;;;;4.60;4.40;;;25.70;76.20;;;;;;5033461;28;20738;-67
2021/07/10 12:18:23;;;;;;;5.70;5.30;;;26.00;76.90;;;;;;5032562;28;20787;-67
2021/07/10 12:20:53;;;;;;;5.10;4.80;;;26.30;76.20;;;;;;5029490;28;20638;-67
2021/07/10 12:23:23;;;;;;;5.40;5.10;;;26.50;75.20;;;;;;5029802;28;20635;-67
2021/07/10 12:25:52;;;;;;;4.60;4.30;;;26.00;74.10;;;;;;5034891;28;20621;-67
2021/07/10 12:28:31;;;;;;;4.57;4.27;;;26.10;76.10;;;;;;5027706;28;20627;-67
2021/07/10 12:31:01;;;;;;;4.90;4.60;;;26.30;75.30;;;;;;5031706;28;20629;-66
2021/07/10 12:33:35;;;;;;;5.60;5.20;;;26.20;75.30;;;;;;5028236;28;20670;-66
2021/07/10 12:36:04;;;;;;;4.77;4.47;;;25.90;78.40;;;;;;5027815;28;20668;-67
2021/07/10 12:38:31;;;;;;;5.70;5.30;;;26.00;74.60;;;;;;5027544;28;20597;-66
2021/07/10 12:41:23;;;;;;;5.10;4.70;;;25.60;75.00;;;;;;5027728;28;20633;-66
2021/07/10 12:43:51;;;;;;;4.80;4.50;;;25.90;76.40;;;;;;5030551;28;20671;-67
2021/07/10 12:46:19;;;;;;;4.83;4.53;;;26.20;75.20;;;;;;5027757;28;20772;-67
2021/07/10 12:48:48;;;;;;;4.83;4.53;;;26.30;72.00;;;;;;5022286;28;20615;-67